createdAt,value
2022-11-01T10:04:41.644Z,26.95
2022-11-01T10:07:17.279Z,24.40
2022-11-01T10:10:06.904Z,24.15
2022-11-01T10:13:04.771Z,24.00
2022-11-01T10:15:44.646Z,24.23
2022-11-01T10:18:26.605Z,24.85
2022-11-01T10:21:00.872Z,25.80
2022-11-01T10:23:42.984Z,25.60
2022-11-01T10:26:16.545Z,25.73
2022-11-01T10:28:52.824Z,26.00
2022-11-01T10:31:24.680Z,24.88
2022-11-01T10:34:11.263Z,25.92
2022-11-01T10:36:45.203Z,25.73
2022-11-01T10:39:54.709Z,26.30
2022-11-01T10:42:29.635Z,24.23
2022-11-01T10:45:06.883Z,26.45
2022-11-01T10:47:35.607Z,27.50
2022-11-01T10:50:12.884Z,27.45
2022-11-01T10:53:01.712Z,25.02
2022-11-01T10:55:42.021Z,26.48
2022-11-01T10:58:36.371Z,25.45
2022-11-01T11:01:08.185Z,26.20
2022-11-01T11:03:41.393Z,26.00
2022-11-01T11:06:13.970Z,26.25
2022-11-01T11:08:45.327Z,26.27
2022-11-01T11:11:17.322Z,28.02
2022-11-01T11:13:54.448Z,25.92
2022-11-01T11:16:45.343Z,27.33
2022-11-01T11:19:19.692Z,26.88
2022-11-01T11:21:50.281Z,29.55
2022-11-01T11:24:21.359Z,38.45
2022-11-01T11:26:56.215Z,35.00
2022-11-01T11:29:38.463Z,27.45
2022-11-01T11:32:15.747Z,28.27
2022-11-01T11:34:45.673Z,27.42
2022-11-01T11:37:22.000Z,27.60
2022-11-01T11:40:11.533Z,26.25
2022-11-01T11:42:40.206Z,40.25
2022-11-01T11:45:19.603Z,27.00
2022-11-01T11:47:50.608Z,29.08
2022-11-01T11:50:21.324Z,28.20
2022-11-01T11:53:00.688Z,28.70
2022-11-01T11:55:48.657Z,28.38
2022-11-01T11:58:39.244Z,26.98
2022-11-01T12:01:21.694Z,26.88
2022-11-01T12:04:14.125Z,25.40
2022-11-01T12:06:45.344Z,23.75
2022-11-01T12:09:50.436Z,23.17
2022-11-01T12:12:27.403Z,22.50
2022-11-01T12:14:57.503Z,21.30
2022-11-01T12:17:35.251Z,22.63
2022-11-01T12:20:27.184Z,19.95
2022-11-01T12:23:27.374Z,20.25
2022-11-01T12:25:58.284Z,18.20
2022-11-01T12:28:34.433Z,17.60
2022-11-01T12:31:22.262Z,14.93
2022-11-01T12:34:03.861Z,13.55
2022-11-01T12:36:37.983Z,13.80
2022-11-01T12:39:35.234Z,14.63
2022-11-01T12:42:05.385Z,13.80
2022-11-01T12:44:41.803Z,14.38
2022-11-01T12:47:28.475Z,15.10
2022-11-01T12:50:03.154Z,16.13
2022-11-01T12:52:48.542Z,18.85
2022-11-01T12:55:21.072Z,17.85
2022-11-01T12:57:49.621Z,13.07
2022-11-01T13:00:21.458Z,12.77
2022-11-01T13:03:10.733Z,10.02
2022-11-01T13:05:41.777Z,9.73
2022-11-01T13:08:50.672Z,8.45
2022-11-01T13:11:47.723Z,8.07
2022-11-01T13:14:43.487Z,6.70
2022-11-01T13:17:24.126Z,7.47
2022-11-01T13:20:06.339Z,7.60
2022-11-01T13:22:53.051Z,7.13
2022-11-01T13:25:57.008Z,6.97
2022-11-01T13:28:42.583Z,7.03
2022-11-01T13:31:44.974Z,8.05
2022-11-01T13:34:27.864Z,8.98
2022-11-01T13:37:20.008Z,12.10
2022-11-01T13:40:23.732Z,9.07
2022-11-01T13:43:10.406Z,8.48
2022-11-01T13:45:50.229Z,7.32
2022-11-01T13:48:35.999Z,7.72
2022-11-01T13:51:29.988Z,7.88
2022-11-01T13:54:04.208Z,7.72
2022-11-01T13:56:37.782Z,8.25
2022-11-01T13:59:37.964Z,7.47
2022-11-01T14:02:24.181Z,6.65
2022-11-01T14:05:01.364Z,7.32
2022-11-01T14:07:37.846Z,7.97
2022-11-01T14:10:12.483Z,7.10
2022-11-01T14:13:10.006Z,8.45
2022-11-01T14:16:15.266Z,6.70
2022-11-01T14:19:03.942Z,8.00
2022-11-01T14:21:46.929Z,8.90
2022-11-01T14:24:33.569Z,7.68
2022-11-01T14:27:20.714Z,7.95
2022-11-01T14:29:51.374Z,7.00
2022-11-01T14:32:22.999Z,7.78
2022-11-01T14:35:02.259Z,7.47
2022-11-01T14:37:39.543Z,8.07
2022-11-01T14:40:30.771Z,7.00
2022-11-01T14:43:36.978Z,7.20
2022-11-01T14:46:16.384Z,6.65
2022-11-01T14:48:51.629Z,7.25
2022-11-01T14:51:35.649Z,7.13
2022-11-01T14:54:17.173Z,7.85
2022-11-01T14:56:53.397Z,9.23
2022-11-01T14:59:32.966Z,7.75
2022-11-01T15:02:08.265Z,7.45
2022-11-01T15:04:44.818Z,7.18
2022-11-01T15:07:27.738Z,8.45
2022-11-01T15:10:02.238Z,8.73
2022-11-01T15:12:35.798Z,8.52
2022-11-01T15:15:04.920Z,8.20
2022-11-01T15:17:35.279Z,7.63
2022-11-01T15:20:15.084Z,8.02
2022-11-01T15:22:43.206Z,9.38
2022-11-01T15:25:22.334Z,8.52
2022-11-01T15:27:51.431Z,8.02
2022-11-01T15:30:23.088Z,7.95
2022-11-01T15:33:10.406Z,7.80
2022-11-01T15:35:38.981Z,7.53
2022-11-01T15:38:20.990Z,8.88
2022-11-01T15:40:53.455Z,8.52
2022-11-01T15:43:29.814Z,8.98
2022-11-01T15:46:01.009Z,8.05
2022-11-01T15:48:38.535Z,9.50
2022-11-01T15:51:15.634Z,8.30
2022-11-01T15:53:43.709Z,8.38
2022-11-01T15:56:19.021Z,8.60
2022-11-01T16:01:26.838Z,11.75
2022-11-01T16:04:07.051Z,11.13
2022-11-01T16:06:56.028Z,9.75
2022-11-01T16:09:38.918Z,11.27
2022-11-01T16:12:18.091Z,11.77
2022-11-01T16:15:11.419Z,12.00
2022-11-01T16:17:42.420Z,11.63
2022-11-01T16:20:36.680Z,10.82
2022-11-01T16:23:06.704Z,11.98
2022-11-01T16:25:39.835Z,11.95
2022-11-01T16:28:10.895Z,12.90
2022-11-01T16:30:46.849Z,12.30
2022-11-01T16:33:29.178Z,14.88
2022-11-01T16:36:20.889Z,12.60
2022-11-01T16:38:53.835Z,19.52
2022-11-01T16:41:24.574Z,20.05
2022-11-01T16:43:55.853Z,24.63
2022-11-01T16:46:25.964Z,25.88
2022-11-01T16:49:04.016Z,52.38
2022-11-01T16:51:32.296Z,13.18
2022-11-01T16:54:01.620Z,13.52
2022-11-01T16:56:37.905Z,18.30
2022-11-01T17:03:25.813Z,14.05
2022-11-01T17:05:56.475Z,14.02
2022-11-01T17:08:28.069Z,10.40
2022-11-01T17:10:56.336Z,10.70
2022-11-01T17:13:25.146Z,11.18
2022-11-01T17:15:53.945Z,9.85
2022-11-01T17:18:29.635Z,10.40
2022-11-01T17:21:00.697Z,12.80
2022-11-01T17:23:30.133Z,11.38
2022-11-01T17:25:58.415Z,11.40
2022-11-01T17:28:26.366Z,18.98
2022-11-01T17:30:55.376Z,11.95
2022-11-01T17:33:23.375Z,11.70
2022-11-01T17:35:52.678Z,12.18
2022-11-01T17:38:30.107Z,12.10
2022-11-01T17:41:00.068Z,12.40
2022-11-01T17:43:28.419Z,11.75
2022-11-01T17:45:59.710Z,13.05
2022-11-01T17:48:28.079Z,13.30
2022-11-01T17:51:01.457Z,13.00
2022-11-01T17:53:29.620Z,12.25
2022-11-01T17:55:58.097Z,13.05
2022-11-01T17:58:26.269Z,13.35
2022-11-01T18:00:54.496Z,12.13
2022-11-01T18:03:22.445Z,12.82
2022-11-01T18:05:51.048Z,13.02
2022-11-01T18:08:21.130Z,11.75
2022-11-01T18:11:04.340Z,13.52
2022-11-01T18:14:03.544Z,19.40
2022-11-01T18:16:38.120Z,19.05
2022-11-01T18:19:29.221Z,14.70
2022-11-01T18:21:57.473Z,14.07
2022-11-01T18:24:35.734Z,14.18
2022-11-01T18:27:13.888Z,14.18
2022-11-01T18:29:50.091Z,13.98
2022-11-01T18:33:03.684Z,12.60
2022-11-01T18:35:40.525Z,13.35
2022-11-01T18:38:18.709Z,13.75
2022-11-01T18:41:00.631Z,14.88
2022-11-01T18:43:32.891Z,16.02
2022-11-01T18:46:23.822Z,17.17
2022-11-01T18:49:00.699Z,22.50
2022-11-01T18:51:31.672Z,27.35
2022-11-01T18:54:08.574Z,16.70
2022-11-01T18:56:41.072Z,16.58
2022-11-01T18:59:33.137Z,13.77
2022-11-01T19:02:24.503Z,13.88
2022-11-01T19:05:18.108Z,13.85
2022-11-01T19:08:10.213Z,13.20
2022-11-01T19:10:42.276Z,13.23
2022-11-01T19:13:22.577Z,12.75
2022-11-01T19:15:54.151Z,12.77
2022-11-01T19:18:23.619Z,12.25
2022-11-01T19:21:00.586Z,11.85
2022-11-01T19:23:38.592Z,13.45
2022-11-01T19:26:25.546Z,13.15
2022-11-01T19:28:54.095Z,12.10
2022-11-01T19:31:31.439Z,12.43
2022-11-01T19:34:04.800Z,12.73
2022-11-01T19:39:32.188Z,13.90
2022-11-01T19:42:07.066Z,12.52
2022-11-01T19:44:36.492Z,12.90
2022-11-01T19:47:44.461Z,11.98
2022-11-01T19:50:23.671Z,13.00
2022-11-01T19:52:57.525Z,13.23
2022-11-01T19:55:51.381Z,13.60
2022-11-01T19:58:28.548Z,14.55
2022-11-01T20:01:03.170Z,12.73
2022-11-01T20:03:44.635Z,12.23
2022-11-01T20:06:35.507Z,14.38
2022-11-01T20:09:27.459Z,13.90
2022-11-01T20:11:57.491Z,13.27
2022-11-01T20:14:26.008Z,13.65
2022-11-01T20:16:55.006Z,12.23
2022-11-01T20:19:49.064Z,13.50
2022-11-01T20:22:18.342Z,13.38
2022-11-01T20:24:47.732Z,12.93
2022-11-01T20:27:19.869Z,12.82
2022-11-01T20:29:49.445Z,13.88
2022-11-01T20:32:19.073Z,13.40
2022-11-01T20:34:50.651Z,13.63
2022-11-01T20:37:34.098Z,12.45
2022-11-01T20:40:04.981Z,13.65
2022-11-01T20:42:34.752Z,13.02
2022-11-01T20:45:04.602Z,13.00
2022-11-01T20:47:33.131Z,13.20
2022-11-01T20:50:06.259Z,13.75
2022-11-01T20:52:39.763Z,13.32
2022-11-01T20:55:11.870Z,12.55
2022-11-01T20:57:42.280Z,12.23
2022-11-01T21:00:15.394Z,11.57
2022-11-01T21:02:45.486Z,12.77
2022-11-01T21:05:30.527Z,11.75
2022-11-01T21:08:11.618Z,12.52
2022-11-01T21:10:43.313Z,12.68
2022-11-01T21:13:27.259Z,11.57
2022-11-01T21:15:59.134Z,10.00
2022-11-01T21:18:48.283Z,10.80
2022-11-01T21:21:27.219Z,10.95
2022-11-01T21:23:55.519Z,8.90
2022-11-01T21:26:26.891Z,10.35
2022-11-01T21:28:59.197Z,10.60
2022-11-01T21:31:30.565Z,10.18
2022-11-01T21:34:04.746Z,9.38
2022-11-01T21:36:47.873Z,8.55
2022-11-01T21:39:16.088Z,9.18
2022-11-01T21:41:51.866Z,7.90
2022-11-01T21:44:40.027Z,9.15
2022-11-01T21:47:25.501Z,8.93
2022-11-01T21:49:54.057Z,9.32
2022-11-01T21:52:23.062Z,9.60
2022-11-01T21:54:52.819Z,10.18
2022-11-01T21:57:21.551Z,10.30
2022-11-01T21:59:49.752Z,8.45
2022-11-01T22:02:18.063Z,9.57
2022-11-01T22:04:46.334Z,8.88
2022-11-01T22:07:14.842Z,9.30
2022-11-01T22:09:42.982Z,8.70
2022-11-01T22:12:11.150Z,9.30
2022-11-01T22:14:39.001Z,9.70
2022-11-01T22:17:07.497Z,8.93
2022-11-01T22:19:35.209Z,9.40
2022-11-01T22:22:03.470Z,10.18
2022-11-01T22:24:31.510Z,9.75
2022-11-01T22:26:59.791Z,11.88
2022-11-01T22:29:27.685Z,10.80
2022-11-01T22:31:56.094Z,11.52
2022-11-01T22:34:24.384Z,11.02
2022-11-01T22:36:52.505Z,11.60
2022-11-01T22:39:23.731Z,12.65
2022-11-01T22:41:52.753Z,11.75
2022-11-01T22:44:27.554Z,13.35
2022-11-01T22:46:59.871Z,11.85
2022-11-01T22:49:46.252Z,12.02
2022-11-01T22:52:34.931Z,11.52
2022-11-01T22:55:09.004Z,11.68
2022-11-01T22:57:55.408Z,12.55
2022-11-01T23:00:26.928Z,11.38
2022-11-01T23:03:18.908Z,10.77
2022-11-01T23:05:52.862Z,11.23
2022-11-01T23:08:30.487Z,10.80
2022-11-01T23:10:59.421Z,11.30
2022-11-01T23:13:55.561Z,10.63
